sensor_id;sensor_type;location;lat;lon;timestamp;P1;durP1;ratioP1;P2;durP2;ratioP2
41923;SDS011;27613;48.116;11.656;2024-02-28T00:02:07;17.80;;;9.00;;
41923;SDS011;27613;48.116;11.656;2024-02-28T00:04:32;13.95;;;9.80;;
41923;SDS011;27613;48.116;11.656;2024-02-28T00:06:58;14.88;;;9.38;;
41923;SDS011;27613;48.116;11.656;2024-02-28T00:09:24;19.10;;;10.00;;
41923;SDS011;27613;48.116;11.656;2024-02-28T00:11:49;16.58;;;10.48;;
41923;SDS011;27613;48.116;11.656;2024-02-28T00:14:15;17.48;;;10.48;;
41923;SDS011;27613;48.116;11.656;2024-02-28T00:16:41;17.67;;;10.25;;
41923;SDS011;27613;48.116;11.656;2024-02-28T00:19:07;17.63;;;10.35;;
41923;SDS011;27613;48.116;11.656;2024-02-28T00:21:33;16.25;;;10.52;;
41923;SDS011;27613;48.116;11.656;2024-02-28T00:23:59;17.85;;;10.77;;
41923;SDS011;27613;48.116;11.656;2024-02-28T00:26:25;16.65;;;10.15;;
41923;SDS011;27613;48.116;11.656;2024-02-28T00:28:50;14.02;;;9.75;;
41923;SDS011;27613;48.116;11.656;2024-02-28T00:31:16;16.15;;;10.35;;
41923;SDS011;27613;48.116;11.656;2024-02-28T00:33:41;24.25;;;11.57;;
41923;SDS011;27613;48.116;11.656;2024-02-28T00:36:07;14.75;;;10.82;;
41923;SDS011;27613;48.116;11.656;2024-02-28T00:38:32;17.17;;;10.73;;
41923;SDS011;27613;48.116;11.656;2024-02-28T00:40:58;17.48;;;10.32;;
41923;SDS011;27613;48.116;11.656;2024-02-28T00:43:23;18.67;;;11.10;;
41923;SDS011;27613;48.116;11.656;2024-02-28T00:45:49;16.48;;;11.40;;
41923;SDS011;27613;48.116;11.656;2024-02-28T00:48:14;22.65;;;10.93;;
41923;SDS011;27613;48.116;11.656;2024-02-28T00:50:40;19.65;;;11.35;;
41923;SDS011;27613;48.116;11.656;2024-02-28T00:53:05;20.77;;;11.13;;
41923;SDS011;27613;48.116;11.656;2024-02-28T00:55:31;16.85;;;11.13;;
41923;SDS011;27613;48.116;11.656;2024-02-28T00:57:56;17.63;;;11.70;;
41923;SDS011;27613;48.116;11.656;2024-02-28T01:00:22;19.13;;;11.63;;
41923;SDS011;27613;48.116;11.656;2024-02-28T01:02:47;20.50;;;12.35;;
41923;SDS011;27613;48.116;11.656;2024-02-28T01:05:13;18.02;;;11.05;;
41923;SDS011;27613;48.116;11.656;2024-02-28T01:07:38;19.65;;;11.75;;
41923;SDS011;27613;48.116;11.656;2024-02-28T01:10:04;17.75;;;10.73;;
41923;SDS011;27613;48.116;11.656;2024-02-28T01:12:30;14.75;;;10.77;;
41923;SDS011;27613;48.116;11.656;2024-02-28T01:14:55;20.00;;;11.82;;
41923;SDS011;27613;48.116;11.656;2024-02-28T01:17:21;23.65;;;11.05;;
41923;SDS011;27613;48.116;11.656;2024-02-28T01:19:46;19.77;;;12.02;;
41923;SDS011;27613;48.116;11.656;2024-02-28T01:22:12;19.75;;;11.13;;
41923;SDS011;27613;48.116;11.656;2024-02-28T01:24:38;18.50;;;11.00;;
41923;SDS011;27613;48.116;11.656;2024-02-28T01:27:03;18.40;;;11.65;;
41923;SDS011;27613;48.116;11.656;2024-02-28T01:29:29;22.15;;;11.77;;
41923;SDS011;27613;48.116;11.656;2024-02-28T01:31:54;19.40;;;12.18;;
41923;SDS011;27613;48.116;11.656;2024-02-28T01:34:20;16.05;;;11.00;;
41923;SDS011;27613;48.116;11.656;2024-02-28T01:36:46;20.20;;;10.82;;
41923;SDS011;27613;48.116;11.656;2024-02-28T01:39:12;21.38;;;12.02;;
41923;SDS011;27613;48.116;11.656;2024-02-28T01:41:37;17.23;;;11.48;;
41923;SDS011;27613;48.116;11.656;2024-02-28T01:44:03;17.85;;;10.85;;
41923;SDS011;27613;48.116;11.656;2024-02-28T01:46:28;23.95;;;12.27;;
41923;SDS011;27613;48.116;11.656;2024-02-28T01:48:55;22.85;;;10.75;;
41923;SDS011;27613;48.116;11.656;2024-02-28T01:51:22;16.77;;;10.73;;
41923;SDS011;27613;48.116;11.656;2024-02-28T01:53:49;19.98;;;11.00;;
41923;SDS011;27613;48.116;11.656;2024-02-28T01:56:17;19.73;;;11.00;;
41923;SDS011;27613;48.116;11.656;2024-02-28T01:58:44;22.42;;;11.10;;
41923;SDS011;27613;48.116;11.656;2024-02-28T02:01:12;22.50;;;11.93;;
41923;SDS011;27613;48.116;11.656;2024-02-28T02:03:39;17.20;;;11.10;;
41923;SDS011;27613;48.116;11.656;2024-02-28T02:06:05;17.00;;;11.15;;
41923;SDS011;27613;48.116;11.656;2024-02-28T02:08:31;15.85;;;10.57;;
41923;SDS011;27613;48.116;11.656;2024-02-28T02:10:58;19.42;;;11.32;;
41923;SDS011;27613;48.116;11.656;2024-02-28T02:13:24;19.23;;;11.40;;
41923;SDS011;27613;48.116;11.656;2024-02-28T02:15:49;22.23;;;11.75;;
41923;SDS011;27613;48.116;11.656;2024-02-28T02:18:15;19.58;;;11.05;;
41923;SDS011;27613;48.116;11.656;2024-02-28T02:20:42;19.88;;;10.88;;
41923;SDS011;27613;48.116;11.656;2024-02-28T02:23:09;23.25;;;10.45;;
41923;SDS011;27613;48.116;11.656;2024-02-28T02:25:43;20.05;;;11.13;;
41923;SDS011;27613;48.116;11.656;2024-02-28T02:28:12;16.63;;;10.27;;
41923;SDS011;27613;48.116;11.656;2024-02-28T02:30:38;19.55;;;11.98;;
41923;SDS011;27613;48.116;11.656;2024-02-28T02:33:04;22.85;;;13.05;;
41923;SDS011;27613;48.116;11.656;2024-02-28T02:35:30;18.38;;;11.82;;
41923;SDS011;27613;48.116;11.656;2024-02-28T02:37:56;18.35;;;12.25;;
41923;SDS011;27613;48.116;11.656;2024-02-28T02:40:22;18.15;;;11.90;;
41923;SDS011;27613;48.116;11.656;2024-02-28T02:42:48;20.55;;;11.80;;
41923;SDS011;27613;48.116;11.656;2024-02-28T02:45:13;22.90;;;12.10;;
41923;SDS011;27613;48.116;11.656;2024-02-28T02:47:39;22.42;;;12.52;;
41923;SDS011;27613;48.116;11.656;2024-02-28T02:50:04;19.90;;;11.80;;
41923;SDS011;27613;48.116;11.656;2024-02-28T02:52:30;21.40;;;12.93;;
41923;SDS011;27613;48.116;11.656;2024-02-28T02:54:56;19.13;;;12.75;;
41923;SDS011;27613;48.116;11.656;2024-02-28T02:57:21;24.05;;;12.52;;
41923;SDS011;27613;48.116;11.656;2024-02-28T02:59:47;19.88;;;11.65;;
41923;SDS011;27613;48.116;11.656;2024-02-28T03:02:12;21.20;;;13.38;;
41923;SDS011;27613;48.116;11.656;2024-02-28T03:04:38;24.58;;;14.20;;
41923;SDS011;27613;48.116;11.656;2024-02-28T03:07:03;23.30;;;12.45;;
41923;SDS011;27613;48.116;11.656;2024-02-28T03:09:29;21.00;;;12.73;;
41923;SDS011;27613;48.116;11.656;2024-02-28T03:11:54;23.08;;;14.15;;
41923;SDS011;27613;48.116;11.656;2024-02-28T03:14:20;21.73;;;13.07;;
41923;SDS011;27613;48.116;11.656;2024-02-28T03:16:47;21.63;;;13.13;;
41923;SDS011;27613;48.116;11.656;2024-02-28T03:19:14;21.80;;;13.13;;
41923;SDS011;27613;48.116;11.656;2024-02-28T03:21:40;17.85;;;12.38;;
41923;SDS011;27613;48.116;11.656;2024-02-28T03:24:06;22.13;;;12.80;;
41923;SDS011;27613;48.116;11.656;2024-02-28T03:26:32;27.13;;;14.25;;
41923;SDS011;27613;48.116;11.656;2024-02-28T03:28:57;22.27;;;13.48;;
41923;SDS011;27613;48.116;11.656;2024-02-28T03:31:24;24.90;;;14.30;;
41923;SDS011;27613;48.116;11.656;2024-02-28T03:33:49;25.52;;;14.23;;
41923;SDS011;27613;48.116;11.656;2024-02-28T03:36:15;21.02;;;13.27;;
41923;SDS011;27613;48.116;11.656;2024-02-28T03:38:41;25.58;;;13.93;;
41923;SDS011;27613;48.116;11.656;2024-02-28T03:41:07;22.30;;;13.40;;
41923;SDS011;27613;48.116;11.656;2024-02-28T03:43:32;25.52;;;14.30;;
41923;SDS011;27613;48.116;11.656;2024-02-28T03:45:58;23.33;;;13.75;;
41923;SDS011;27613;48.116;11.656;2024-02-28T03:48:23;25.10;;;14.63;;
41923;SDS011;27613;48.116;11.656;2024-02-28T03:50:49;22.15;;;14.85;;
41923;SDS011;27613;48.116;11.656;2024-02-28T03:53:15;25.77;;;14.27;;
41923;SDS011;27613;48.116;11.656;2024-02-28T03:55:41;24.10;;;15.23;;
41923;SDS011;27613;48.116;11.656;2024-02-28T03:58:09;23.33;;;15.25;;
41923;SDS011;27613;48.116;11.656;2024-02-28T04:00:34;25.10;;;14.85;;
41923;SDS011;27613;48.116;11.656;2024-02-28T04:03:01;22.95;;;14.43;;
41923;SDS011;27613;48.116;11.656;2024-02-28T04:05:27;27.05;;;15.10;;
41923;SDS011;27613;48.116;11.656;2024-02-28T04:07:53;25.33;;;14.57;;
41923;SDS011;27613;48.116;11.656;2024-02-28T04:10:19;23.05;;;13.82;;
41923;SDS011;27613;48.116;11.656;2024-02-28T04:12:44;28.63;;;15.80;;
41923;SDS011;27613;48.116;11.656;2024-02-28T04:15:10;24.48;;;13.60;;
41923;SDS011;27613;48.116;11.656;2024-02-28T04:17:37;25.58;;;13.85;;
41923;SDS011;27613;48.116;11.656;2024-02-28T04:20:03;22.92;;;14.15;;
41923;SDS011;27613;48.116;11.656;2024-02-28T04:22:33;20.92;;;13.38;;
41923;SDS011;27613;48.116;11.656;2024-02-28T04:24:58;22.98;;;13.38;;
41923;SDS011;27613;48.116;11.656;2024-02-28T04:27:24;26.58;;;14.25;;
41923;SDS011;27613;48.116;11.656;2024-02-28T04:29:49;23.33;;;13.75;;
41923;SDS011;27613;48.116;11.656;2024-02-28T04:32:15;20.05;;;13.38;;
41923;SDS011;27613;48.116;11.656;2024-02-28T04:34:40;22.30;;;13.48;;
41923;SDS011;27613;48.116;11.656;2024-02-28T04:37:06;23.42;;;13.52;;
41923;SDS011;27613;48.116;11.656;2024-02-28T04:39:31;26.42;;;13.93;;
41923;SDS011;27613;48.116;11.656;2024-02-28T04:41:57;22.08;;;14.45;;
41923;SDS011;27613;48.116;11.656;2024-02-28T04:44:22;23.30;;;14.80;;
41923;SDS011;27613;48.116;11.656;2024-02-28T04:46:48;26.27;;;14.23;;
41923;SDS011;27613;48.116;11.656;2024-02-28T04:49:14;22.40;;;13.98;;
41923;SDS011;27613;48.116;11.656;2024-02-28T04:51:39;24.45;;;13.77;;
41923;SDS011;27613;48.116;11.656;2024-02-28T04:54:05;21.73;;;14.13;;
41923;SDS011;27613;48.116;11.656;2024-02-28T04:56:30;25.17;;;14.20;;
41923;SDS011;27613;48.116;11.656;2024-02-28T04:58:56;26.95;;;14.52;;
41923;SDS011;27613;48.116;11.656;2024-02-28T05:01:21;25.52;;;14.35;;
41923;SDS011;27613;48.116;11.656;2024-02-28T05:03:47;25.00;;;13.82;;
41923;SDS011;27613;48.116;11.656;2024-02-28T05:06:13;26.08;;;14.52;;
41923;SDS011;27613;48.116;11.656;2024-02-28T05:08:38;20.85;;;12.82;;
41923;SDS011;27613;48.116;11.656;2024-02-28T05:11:04;23.38;;;14.93;;
41923;SDS011;27613;48.116;11.656;2024-02-28T05:13:29;21.00;;;13.32;;
41923;SDS011;27613;48.116;11.656;2024-02-28T05:15:55;20.98;;;13.57;;
41923;SDS011;27613;48.116;11.656;2024-02-28T05:18:20;25.25;;;13.27;;
41923;SDS011;27613;48.116;11.656;2024-02-28T05:20:46;24.33;;;13.85;;
41923;SDS011;27613;48.116;11.656;2024-02-28T05:23:11;23.75;;;13.93;;
41923;SDS011;27613;48.116;11.656;2024-02-28T05:25:37;24.70;;;13.65;;
41923;SDS011;27613;48.116;11.656;2024-02-28T05:28:03;25.67;;;13.93;;
41923;SDS011;27613;48.116;11.656;2024-02-28T05:30:29;24.00;;;13.82;;
41923;SDS011;27613;48.116;11.656;2024-02-28T05:32:54;23.42;;;14.82;;
41923;SDS011;27613;48.116;11.656;2024-02-28T05:35:20;21.20;;;13.60;;
41923;SDS011;27613;48.116;11.656;2024-02-28T05:37:45;25.50;;;15.55;;
41923;SDS011;27613;48.116;11.656;2024-02-28T05:40:14;25.58;;;13.95;;
41923;SDS011;27613;48.116;11.656;2024-02-28T05:42:39;25.77;;;14.68;;
41923;SDS011;27613;48.116;11.656;2024-02-28T05:45:05;24.65;;;14.82;;
41923;SDS011;27613;48.116;11.656;2024-02-28T05:47:31;23.20;;;14.73;;
41923;SDS011;27613;48.116;11.656;2024-02-28T05:49:57;25.33;;;13.60;;
41923;SDS011;27613;48.116;11.656;2024-02-28T05:52:23;24.50;;;14.23;;
41923;SDS011;27613;48.116;11.656;2024-02-28T05:54:50;27.63;;;14.95;;
41923;SDS011;27613;48.116;11.656;2024-02-28T05:57:16;26.80;;;14.95;;
41923;SDS011;27613;48.116;11.656;2024-02-28T05:59:41;29.60;;;14.73;;
41923;SDS011;27613;48.116;11.656;2024-02-28T06:02:07;27.27;;;15.45;;
41923;SDS011;27613;48.116;11.656;2024-02-28T06:04:33;26.60;;;14.18;;
41923;SDS011;27613;48.116;11.656;2024-02-28T06:06:58;30.73;;;15.35;;
41923;SDS011;27613;48.116;11.656;2024-02-28T06:09:24;24.00;;;15.57;;
41923;SDS011;27613;48.116;11.656;2024-02-28T06:11:52;34.95;;;16.27;;
41923;SDS011;27613;48.116;11.656;2024-02-28T06:14:18;26.63;;;15.68;;
41923;SDS011;27613;48.116;11.656;2024-02-28T06:16:46;24.92;;;14.85;;
41923;SDS011;27613;48.116;11.656;2024-02-28T06:19:12;22.38;;;15.55;;
41923;SDS011;27613;48.116;11.656;2024-02-28T06:21:37;29.70;;;16.15;;
41923;SDS011;27613;48.116;11.656;2024-02-28T06:24:03;25.48;;;16.13;;
41923;SDS011;27613;48.116;11.656;2024-02-28T06:26:29;25.45;;;15.77;;
41923;SDS011;27613;48.116;11.656;2024-02-28T06:28:56;31.42;;;15.82;;
41923;SDS011;27613;48.116;11.656;2024-02-28T06:31:26;25.10;;;15.35;;
41923;SDS011;27613;48.116;11.656;2024-02-28T06:33:54;28.45;;;15.52;;
41923;SDS011;27613;48.116;11.656;2024-02-28T06:36:20;33.35;;;15.63;;
41923;SDS011;27613;48.116;11.656;2024-02-28T06:38:45;26.83;;;16.13;;
41923;SDS011;27613;48.116;11.656;2024-02-28T06:41:11;25.25;;;15.70;;
41923;SDS011;27613;48.116;11.656;2024-02-28T06:43:37;25.25;;;16.50;;
41923;SDS011;27613;48.116;11.656;2024-02-28T06:46:02;27.55;;;16.10;;
41923;SDS011;27613;48.116;11.656;2024-02-28T06:48:28;25.85;;;15.65;;
41923;SDS011;27613;48.116;11.656;2024-02-28T06:50:54;29.38;;;17.05;;
41923;SDS011;27613;48.116;11.656;2024-02-28T06:53:20;33.70;;;17.73;;
41923;SDS011;27613;48.116;11.656;2024-02-28T06:55:46;28.73;;;15.52;;
41923;SDS011;27613;48.116;11.656;2024-02-28T06:58:13;34.33;;;17.52;;
41923;SDS011;27613;48.116;11.656;2024-02-28T07:00:39;29.98;;;16.75;;
41923;SDS011;27613;48.116;11.656;2024-02-28T07:03:04;30.98;;;16.55;;
41923;SDS011;27613;48.116;11.656;2024-02-28T07:05:30;28.15;;;17.17;;
41923;SDS011;27613;48.116;11.656;2024-02-28T07:07:56;29.65;;;16.80;;
41923;SDS011;27613;48.116;11.656;2024-02-28T07:10:22;27.38;;;16.52;;
41923;SDS011;27613;48.116;11.656;2024-02-28T07:12:48;28.00;;;16.25;;
41923;SDS011;27613;48.116;11.656;2024-02-28T07:15:14;27.20;;;16.35;;
41923;SDS011;27613;48.116;11.656;2024-02-28T07:17:39;31.23;;;18.20;;
41923;SDS011;27613;48.116;11.656;2024-02-28T07:20:05;30.50;;;15.90;;
41923;SDS011;27613;48.116;11.656;2024-02-28T07:22:31;27.48;;;16.33;;
41923;SDS011;27613;48.116;11.656;2024-02-28T07:24:57;29.48;;;16.60;;
41923;SDS011;27613;48.116;11.656;2024-02-28T07:27:23;26.40;;;15.30;;
41923;SDS011;27613;48.116;11.656;2024-02-28T07:29:51;24.95;;;15.85;;
41923;SDS011;27613;48.116;11.656;2024-02-28T07:32:17;25.83;;;16.25;;
41923;SDS011;27613;48.116;11.656;2024-02-28T07:34:42;31.35;;;17.75;;
41923;SDS011;27613;48.116;11.656;2024-02-28T07:37:08;31.50;;;16.98;;
41923;SDS011;27613;48.116;11.656;2024-02-28T07:39:33;30.70;;;17.55;;
41923;SDS011;27613;48.116;11.656;2024-02-28T07:41:59;41.22;;;17.90;;
41923;SDS011;27613;48.116;11.656;2024-02-28T07:44:25;34.30;;;18.80;;
41923;SDS011;27613;48.116;11.656;2024-02-28T07:46:50;30.50;;;17.65;;
41923;SDS011;27613;48.116;11.656;2024-02-28T07:49:16;28.98;;;18.05;;
41923;SDS011;27613;48.116;11.656;2024-02-28T07:51:41;28.52;;;17.58;;
41923;SDS011;27613;48.116;11.656;2024-02-28T07:54:07;33.88;;;19.48;;
41923;SDS011;27613;48.116;11.656;2024-02-28T07:56:33;37.15;;;19.42;;
41923;SDS011;27613;48.116;11.656;2024-02-28T07:58:58;30.73;;;18.23;;
41923;SDS011;27613;48.116;11.656;2024-02-28T08:01:24;39.28;;;18.95;;
41923;SDS011;27613;48.116;11.656;2024-02-28T08:03:49;28.70;;;18.00;;
41923;SDS011;27613;48.116;11.656;2024-02-28T08:06:15;29.58;;;18.00;;
41923;SDS011;27613;48.116;11.656;2024-02-28T08:08:43;36.47;;;18.98;;
41923;SDS011;27613;48.116;11.656;2024-02-28T08:11:10;33.05;;;18.38;;
41923;SDS011;27613;48.116;11.656;2024-02-28T08:13:36;29.85;;;17.13;;
41923;SDS011;27613;48.116;11.656;2024-02-28T08:16:01;30.25;;;17.50;;
41923;SDS011;27613;48.116;11.656;2024-02-28T08:18:27;30.83;;;19.08;;
41923;SDS011;27613;48.116;11.656;2024-02-28T08:20:53;34.63;;;18.40;;
41923;SDS011;27613;48.116;11.656;2024-02-28T08:23:22;31.15;;;16.48;;
41923;SDS011;27613;48.116;11.656;2024-02-28T08:25:48;36.30;;;18.40;;
41923;SDS011;27613;48.116;11.656;2024-02-28T08:28:13;31.77;;;17.30;;
41923;SDS011;27613;48.116;11.656;2024-02-28T08:30:39;36.97;;;18.17;;
41923;SDS011;27613;48.116;11.656;2024-02-28T08:33:07;33.08;;;17.92;;
41923;SDS011;27613;48.116;11.656;2024-02-28T08:35:35;34.38;;;18.17;;
41923;SDS011;27613;48.116;11.656;2024-02-28T08:38:00;36.50;;;19.02;;
41923;SDS011;27613;48.116;11.656;2024-02-28T08:40:28;37.17;;;18.20;;
41923;SDS011;27613;48.116;11.656;2024-02-28T08:42:53;31.05;;;18.08;;
41923;SDS011;27613;48.116;11.656;2024-02-28T08:45:19;42.05;;;19.55;;
41923;SDS011;27613;48.116;11.656;2024-02-28T08:47:45;32.65;;;18.23;;
41923;SDS011;27613;48.116;11.656;2024-02-28T08:50:11;31.08;;;17.70;;
41923;SDS011;27613;48.116;11.656;2024-02-28T08:52:36;32.33;;;19.10;;
41923;SDS011;27613;48.116;11.656;2024-02-28T08:55:02;33.92;;;17.65;;
41923;SDS011;27613;48.116;11.656;2024-02-28T08:57:27;33.13;;;18.88;;
41923;SDS011;27613;48.116;11.656;2024-02-28T08:59:55;30.20;;;18.80;;
41923;SDS011;27613;48.116;11.656;2024-02-28T09:02:20;39.05;;;19.83;;
41923;SDS011;27613;48.116;11.656;2024-02-28T09:04:46;33.45;;;18.35;;
41923;SDS011;27613;48.116;11.656;2024-02-28T09:07:17;30.40;;;19.27;;
41923;SDS011;27613;48.116;11.656;2024-02-28T09:09:44;32.58;;;18.77;;
41923;SDS011;27613;48.116;11.656;2024-02-28T09:12:10;29.85;;;18.67;;
41923;SDS011;27613;48.116;11.656;2024-02-28T09:14:36;32.90;;;19.00;;
41923;SDS011;27613;48.116;11.656;2024-02-28T09:17:01;31.48;;;18.48;;
41923;SDS011;27613;48.116;11.656;2024-02-28T09:19:30;33.65;;;19.25;;
41923;SDS011;27613;48.116;11.656;2024-02-28T09:21:56;33.60;;;19.55;;
41923;SDS011;27613;48.116;11.656;2024-02-28T09:24:23;43.45;;;18.52;;
41923;SDS011;27613;48.116;11.656;2024-02-28T09:26:49;30.40;;;18.48;;
41923;SDS011;27613;48.116;11.656;2024-02-28T09:29:14;33.50;;;19.05;;
41923;SDS011;27613;48.116;11.656;2024-02-28T09:31:40;32.17;;;18.80;;
41923;SDS011;27613;48.116;11.656;2024-02-28T09:34:05;32.03;;;19.35;;
41923;SDS011;27613;48.116;11.656;2024-02-28T09:36:40;36.67;;;20.95;;
41923;SDS011;27613;48.116;11.656;2024-02-28T09:39:10;35.50;;;20.38;;
41923;SDS011;27613;48.116;11.656;2024-02-28T09:41:40;31.70;;;18.48;;
41923;SDS011;27613;48.116;11.656;2024-02-28T09:44:06;30.33;;;17.75;;
41923;SDS011;27613;48.116;11.656;2024-02-28T09:46:32;32.70;;;18.77;;
41923;SDS011;27613;48.116;11.656;2024-02-28T09:49:04;34.63;;;18.55;;
41923;SDS011;27613;48.116;11.656;2024-02-28T09:51:34;27.95;;;18.13;;
41923;SDS011;27613;48.116;11.656;2024-02-28T09:54:00;32.72;;;18.63;;
41923;SDS011;27613;48.116;11.656;2024-02-28T09:56:27;37.30;;;20.83;;
41923;SDS011;27613;48.116;11.656;2024-02-28T09:58:53;32.72;;;19.55;;
41923;SDS011;27613;48.116;11.656;2024-02-28T10:01:19;41.58;;;20.17;;
41923;SDS011;27613;48.116;11.656;2024-02-28T10:03:46;34.65;;;19.38;;
41923;SDS011;27613;48.116;11.656;2024-02-28T10:06:15;31.75;;;18.52;;
41923;SDS011;27613;48.116;11.656;2024-02-28T10:08:41;30.60;;;18.27;;
41923;SDS011;27613;48.116;11.656;2024-02-28T10:11:06;33.50;;;18.83;;
41923;SDS011;27613;48.116;11.656;2024-02-28T10:13:32;33.53;;;20.15;;
41923;SDS011;27613;48.116;11.656;2024-02-28T10:15:57;34.22;;;19.33;;
41923;SDS011;27613;48.116;11.656;2024-02-28T10:18:23;28.50;;;17.33;;
41923;SDS011;27613;48.116;11.656;2024-02-28T10:20:51;31.55;;;17.73;;
41923;SDS011;27613;48.116;11.656;2024-02-28T10:23:16;31.67;;;18.60;;
41923;SDS011;27613;48.116;11.656;2024-02-28T10:25:45;29.27;;;17.65;;
41923;SDS011;27613;48.116;11.656;2024-02-28T10:28:14;34.55;;;18.83;;
41923;SDS011;27613;48.116;11.656;2024-02-28T10:30:40;29.65;;;18.40;;
41923;SDS011;27613;48.116;11.656;2024-02-28T10:33:13;28.05;;;18.25;;
41923;SDS011;27613;48.116;11.656;2024-02-28T10:35:42;29.38;;;18.15;;
41923;SDS011;27613;48.116;11.656;2024-02-28T10:38:10;31.38;;;17.77;;
41923;SDS011;27613;48.116;11.656;2024-02-28T10:40:36;31.83;;;18.13;;
41923;SDS011;27613;48.116;11.656;2024-02-28T10:43:02;29.20;;;17.77;;
41923;SDS011;27613;48.116;11.656;2024-02-28T10:45:31;31.70;;;17.75;;
41923;SDS011;27613;48.116;11.656;2024-02-28T10:47:56;29.88;;;17.40;;
41923;SDS011;27613;48.116;11.656;2024-02-28T10:50:22;34.58;;;19.35;;
41923;SDS011;27613;48.116;11.656;2024-02-28T10:52:48;28.95;;;17.73;;
41923;SDS011;27613;48.116;11.656;2024-02-28T10:55:17;25.15;;;17.10;;
41923;SDS011;27613;48.116;11.656;2024-02-28T10:57:49;26.65;;;17.27;;
41923;SDS011;27613;48.116;11.656;2024-02-28T11:00:32;25.40;;;16.63;;
41923;SDS011;27613;48.116;11.656;2024-02-28T11:03:00;22.67;;;15.60;;
41923;SDS011;27613;48.116;11.656;2024-02-28T11:05:37;29.35;;;15.88;;
41923;SDS011;27613;48.116;11.656;2024-02-28T11:08:05;25.88;;;15.82;;
41923;SDS011;27613;48.116;11.656;2024-02-28T11:10:57;29.42;;;15.88;;
41923;SDS011;27613;48.116;11.656;2024-02-28T11:13:25;31.15;;;15.70;;
41923;SDS011;27613;48.116;11.656;2024-02-28T11:15:51;25.63;;;15.93;;
41923;SDS011;27613;48.116;11.656;2024-02-28T11:18:17;28.35;;;16.90;;
41923;SDS011;27613;48.116;11.656;2024-02-28T11:20:43;25.92;;;16.42;;
41923;SDS011;27613;48.116;11.656;2024-02-28T11:23:12;29.60;;;15.98;;
41923;SDS011;27613;48.116;11.656;2024-02-28T11:25:39;31.13;;;16.95;;
41923;SDS011;27613;48.116;11.656;2024-02-28T11:28:08;23.20;;;14.43;;
41923;SDS011;27613;48.116;11.656;2024-02-28T11:30:34;24.80;;;15.80;;
41923;SDS011;27613;48.116;11.656;2024-02-28T11:32:59;27.45;;;16.35;;
41923;SDS011;27613;48.116;11.656;2024-02-28T11:35:26;28.40;;;15.32;;
41923;SDS011;27613;48.116;11.656;2024-02-28T11:37:53;28.75;;;17.58;;
41923;SDS011;27613;48.116;11.656;2024-02-28T11:40:22;27.75;;;18.27;;
41923;SDS011;27613;48.116;11.656;2024-02-28T11:42:51;28.50;;;17.23;;
41923;SDS011;27613;48.116;11.656;2024-02-28T11:45:20;31.48;;;17.80;;
41923;SDS011;27613;48.116;11.656;2024-02-28T11:47:45;26.65;;;17.20;;
41923;SDS011;27613;48.116;11.656;2024-02-28T11:50:12;28.70;;;16.85;;
41923;SDS011;27613;48.116;11.656;2024-02-28T11:52:39;29.40;;;16.40;;
41923;SDS011;27613;48.116;11.656;2024-02-28T11:55:05;26.70;;;17.13;;
41923;SDS011;27613;48.116;11.656;2024-02-28T11:57:31;29.65;;;17.55;;
41923;SDS011;27613;48.116;11.656;2024-02-28T12:00:02;26.40;;;17.02;;
41923;SDS011;27613;48.116;11.656;2024-02-28T12:02:32;28.98;;;17.48;;
41923;SDS011;27613;48.116;11.656;2024-02-28T12:05:01;27.20;;;16.58;;
41923;SDS011;27613;48.116;11.656;2024-02-28T12:07:27;29.58;;;17.77;;
41923;SDS011;27613;48.116;11.656;2024-02-28T12:09:55;35.90;;;18.55;;
41923;SDS011;27613;48.116;11.656;2024-02-28T12:12:21;32.17;;;17.08;;
41923;SDS011;27613;48.116;11.656;2024-02-28T12:14:47;34.00;;;19.88;;
41923;SDS011;27613;48.116;11.656;2024-02-28T12:17:16;30.13;;;18.40;;
41923;SDS011;27613;48.116;11.656;2024-02-28T12:19:41;28.98;;;18.27;;
41923;SDS011;27613;48.116;11.656;2024-02-28T12:22:07;28.52;;;17.65;;
41923;SDS011;27613;48.116;11.656;2024-02-28T12:24:33;26.08;;;17.25;;
41923;SDS011;27613;48.116;11.656;2024-02-28T12:26:59;32.92;;;18.30;;
41923;SDS011;27613;48.116;11.656;2024-02-28T12:29:24;28.27;;;17.52;;
41923;SDS011;27613;48.116;11.656;2024-02-28T12:31:50;33.45;;;19.27;;
41923;SDS011;27613;48.116;11.656;2024-02-28T12:34:15;32.72;;;19.02;;
41923;SDS011;27613;48.116;11.656;2024-02-28T12:36:41;27.10;;;17.75;;
41923;SDS011;27613;48.116;11.656;2024-02-28T12:39:07;32.75;;;17.48;;
41923;SDS011;27613;48.116;11.656;2024-02-28T12:44:08;24.92;;;16.80;;
41923;SDS011;27613;48.116;11.656;2024-02-28T12:46:35;28.58;;;17.70;;
41923;SDS011;27613;48.116;11.656;2024-02-28T12:49:02;32.53;;;18.15;;
41923;SDS011;27613;48.116;11.656;2024-02-28T12:54:03;25.60;;;16.20;;
41923;SDS011;27613;48.116;11.656;2024-02-28T12:56:29;32.85;;;18.42;;
41923;SDS011;27613;48.116;11.656;2024-02-28T12:58:55;27.10;;;16.15;;
41923;SDS011;27613;48.116;11.656;2024-02-28T13:01:20;26.13;;;16.23;;
41923;SDS011;27613;48.116;11.656;2024-02-28T13:03:46;25.67;;;16.63;;
41923;SDS011;27613;48.116;11.656;2024-02-28T13:06:13;26.83;;;16.48;;
41923;SDS011;27613;48.116;11.656;2024-02-28T13:08:40;27.85;;;16.42;;
41923;SDS011;27613;48.116;11.656;2024-02-28T13:11:05;26.00;;;16.15;;
41923;SDS011;27613;48.116;11.656;2024-02-28T13:13:32;31.23;;;16.27;;
41923;SDS011;27613;48.116;11.656;2024-02-28T13:15:58;26.15;;;16.17;;
41923;SDS011;27613;48.116;11.656;2024-02-28T13:18:23;25.70;;;15.75;;
41923;SDS011;27613;48.116;11.656;2024-02-28T13:20:50;27.23;;;15.93;;
41923;SDS011;27613;48.116;11.656;2024-02-28T13:23:16;25.20;;;15.93;;
41923;SDS011;27613;48.116;11.656;2024-02-28T13:25:43;26.83;;;16.23;;
41923;SDS011;27613;48.116;11.656;2024-02-28T13:28:09;26.60;;;16.08;;
41923;SDS011;27613;48.116;11.656;2024-02-28T13:30:34;27.23;;;16.73;;
41923;SDS011;27613;48.116;11.656;2024-02-28T13:33:01;24.73;;;16.30;;
41923;SDS011;27613;48.116;11.656;2024-02-28T13:35:29;26.60;;;15.55;;
41923;SDS011;27613;48.116;11.656;2024-02-28T13:37:56;23.77;;;14.90;;
41923;SDS011;27613;48.116;11.656;2024-02-28T13:40:25;25.75;;;14.48;;
41923;SDS011;27613;48.116;11.656;2024-02-28T13:42:52;23.80;;;15.30;;
41923;SDS011;27613;48.116;11.656;2024-02-28T13:45:17;24.58;;;14.60;;
41923;SDS011;27613;48.116;11.656;2024-02-28T13:47:43;23.33;;;14.43;;
41923;SDS011;27613;48.116;11.656;2024-02-28T13:50:09;24.88;;;15.35;;
41923;SDS011;27613;48.116;11.656;2024-02-28T13:52:35;21.95;;;14.07;;
41923;SDS011;27613;48.116;11.656;2024-02-28T13:55:01;23.65;;;15.00;;
41923;SDS011;27613;48.116;11.656;2024-02-28T13:57:26;25.52;;;15.30;;
41923;SDS011;27613;48.116;11.656;2024-02-28T13:59:52;22.77;;;14.10;;
41923;SDS011;27613;48.116;11.656;2024-02-28T14:02:19;23.55;;;14.00;;
41923;SDS011;27613;48.116;11.656;2024-02-28T14:04:51;25.23;;;15.02;;
41923;SDS011;27613;48.116;11.656;2024-02-28T14:07:19;23.88;;;14.77;;
41923;SDS011;27613;48.116;11.656;2024-02-28T14:09:45;25.73;;;14.45;;